createdAt,value
2022-07-27T00:00:55.639Z,53.61
2022-07-27T00:03:22.850Z,53.86
2022-07-27T00:05:49.519Z,53.96
2022-07-27T00:08:16.147Z,54.04
2022-07-27T00:10:42.572Z,54.43
2022-07-27T00:13:10.455Z,54.49
2022-07-27T00:15:37.374Z,54.46
2022-07-27T00:18:04.066Z,54.84
2022-07-27T00:20:31.508Z,54.86
2022-07-27T00:22:59.050Z,54.80
2022-07-27T00:25:27.120Z,54.83
2022-07-27T00:27:56.598Z,54.93
2022-07-27T00:30:23.856Z,54.85
2022-07-27T00:32:51.544Z,54.92
2022-07-27T00:35:18.355Z,55.01
2022-07-27T00:37:44.806Z,55.01
2022-07-27T00:40:12.296Z,55.18
2022-07-27T00:42:38.804Z,55.25
2022-07-27T00:45:06.121Z,55.35
2022-07-27T00:47:35.476Z,55.35
2022-07-27T00:50:03.622Z,55.48
2022-07-27T00:52:31.206Z,55.60
2022-07-27T00:54:58.715Z,55.64
2022-07-27T00:57:27.450Z,55.64
2022-07-27T00:59:54.154Z,55.77
2022-07-27T01:02:22.991Z,55.95
2022-07-27T01:04:53.790Z,56.18
2022-07-27T01:07:25.389Z,56.32
2022-07-27T01:09:58.192Z,56.32
2022-07-27T01:12:30.932Z,56.41
2022-07-27T01:14:58.952Z,56.52
2022-07-27T01:17:30.061Z,56.50
2022-07-27T01:20:00.394Z,56.67
2022-07-27T01:22:27.031Z,56.79
2022-07-27T01:24:53.777Z,56.72
2022-07-27T01:27:20.678Z,56.82
2022-07-27T01:29:47.908Z,56.91
2022-07-27T01:32:14.532Z,57.13
2022-07-27T01:34:41.014Z,57.11
2022-07-27T01:37:07.553Z,57.14
2022-07-27T01:39:34.032Z,57.21
2022-07-27T01:42:00.828Z,57.31
2022-07-27T01:44:27.342Z,57.32
2022-07-27T01:46:53.933Z,57.34
2022-07-27T01:49:20.769Z,57.36
2022-07-27T01:51:47.669Z,57.35
2022-07-27T01:54:14.631Z,57.58
2022-07-27T01:56:41.272Z,57.66
2022-07-27T01:59:16.307Z,57.64
2022-07-27T02:01:44.405Z,57.85
2022-07-27T02:04:11.729Z,57.91
2022-07-27T02:06:38.798Z,57.85
2022-07-27T02:09:05.340Z,58.05
2022-07-27T02:11:50.628Z,58.17
2022-07-27T02:14:17.078Z,58.28
2022-07-27T02:16:43.656Z,58.20
2022-07-27T02:19:11.230Z,58.43
2022-07-27T02:21:37.904Z,58.47
2022-07-27T02:24:04.983Z,58.51
2022-07-27T02:26:31.393Z,58.45
2022-07-27T02:28:58.210Z,58.67
2022-07-27T02:31:24.689Z,58.61
2022-07-27T02:33:51.392Z,58.71
2022-07-27T02:36:17.906Z,58.78
2022-07-27T02:38:44.692Z,58.79
2022-07-27T02:41:12.057Z,58.94
2022-07-27T02:43:38.495Z,58.85
2022-07-27T02:46:05.554Z,59.00
2022-07-27T02:48:32.511Z,58.94
2022-07-27T02:51:00.818Z,59.04
2022-07-27T02:53:28.703Z,59.09
2022-07-27T02:55:55.814Z,59.17
2022-07-27T02:58:23.126Z,59.08
2022-07-27T03:00:52.583Z,59.21
2022-07-27T03:03:22.815Z,59.24
2022-07-27T03:06:00.874Z,59.33
2022-07-27T03:08:27.810Z,59.20
2022-07-27T03:10:54.820Z,59.27
2022-07-27T03:13:21.675Z,59.27
2022-07-27T03:15:48.154Z,59.28
2022-07-27T03:18:14.619Z,59.27
2022-07-27T03:20:41.042Z,59.37
2022-07-27T03:23:08.450Z,59.36
2022-07-27T03:25:34.956Z,59.35
2022-07-27T03:28:04.175Z,59.36
2022-07-27T03:30:32.403Z,59.47
2022-07-27T03:32:58.979Z,59.54
2022-07-27T03:35:25.512Z,59.42
2022-07-27T03:37:52.006Z,59.44
2022-07-27T03:40:18.814Z,59.42
2022-07-27T03:42:45.497Z,59.55
2022-07-27T03:45:12.008Z,59.51
2022-07-27T03:47:38.458Z,59.43
2022-07-27T03:50:07.543Z,59.52
2022-07-27T03:52:34.031Z,59.44
2022-07-27T03:55:00.807Z,59.44
2022-07-27T03:57:27.273Z,59.50
2022-07-27T03:59:53.762Z,59.42
2022-07-27T04:02:20.548Z,59.64
2022-07-27T04:04:47.374Z,59.45
2022-07-27T04:07:13.798Z,59.50
2022-07-27T04:09:40.737Z,59.78
2022-07-27T04:12:09.493Z,59.85
2022-07-27T04:14:36.116Z,59.88
2022-07-27T04:17:03.068Z,59.92
2022-07-27T04:19:30.131Z,59.82
2022-07-27T04:21:56.873Z,60.08
2022-07-27T04:24:23.385Z,60.04
2022-07-27T04:26:49.856Z,60.04
2022-07-27T04:29:20.495Z,60.17
2022-07-27T04:31:48.090Z,60.12
2022-07-27T04:34:15.037Z,60.08
2022-07-27T04:36:41.555Z,59.71
2022-07-27T04:39:08.537Z,59.62
2022-07-27T04:41:35.223Z,59.61
2022-07-27T04:44:01.859Z,59.23
2022-07-27T04:46:29.050Z,59.47
2022-07-27T04:48:55.797Z,59.19
2022-07-27T04:51:22.225Z,58.41
2022-07-27T04:53:52.719Z,58.27
2022-07-27T04:56:26.769Z,58.32
2022-07-27T04:58:54.451Z,58.14
2022-07-27T05:01:22.378Z,58.35
2022-07-27T05:03:48.864Z,57.98
2022-07-27T05:06:15.657Z,57.94
2022-07-27T05:08:42.009Z,57.98
2022-07-27T05:11:11.596Z,57.88
2022-07-27T05:13:39.978Z,57.90
2022-07-27T05:16:08.822Z,57.77
2022-07-27T05:18:35.879Z,57.82
2022-07-27T05:21:02.688Z,57.78
2022-07-27T05:23:29.119Z,57.69
2022-07-27T05:25:55.564Z,57.67
2022-07-27T05:28:25.094Z,57.78
2022-07-27T05:30:52.917Z,57.43
2022-07-27T05:33:19.463Z,57.57
2022-07-27T05:35:45.879Z,57.18
2022-07-27T05:38:13.720Z,57.20
2022-07-27T05:40:40.750Z,57.17
2022-07-27T05:43:07.213Z,57.22
2022-07-27T05:45:34.287Z,57.27
2022-07-27T05:48:00.742Z,57.22
2022-07-27T05:50:27.302Z,57.15
2022-07-27T05:52:53.758Z,56.95
2022-07-27T05:55:21.414Z,56.53
2022-07-27T05:57:47.932Z,56.48
2022-07-27T06:00:14.555Z,56.34
2022-07-27T06:02:41.752Z,56.60
2022-07-27T06:05:14.836Z,56.65
2022-07-27T06:08:01.667Z,56.61
2022-07-27T06:10:31.750Z,56.58
2022-07-27T06:12:58.358Z,56.80
2022-07-27T06:15:25.409Z,56.94
2022-07-27T06:17:54.878Z,56.91
2022-07-27T06:20:23.025Z,56.95
2022-07-27T06:22:52.510Z,56.98
2022-07-27T06:25:21.076Z,57.03
2022-07-27T06:27:48.135Z,56.98
2022-07-27T06:30:17.003Z,57.13
2022-07-27T06:32:44.467Z,57.02
2022-07-27T06:35:12.642Z,56.87
2022-07-27T06:37:44.277Z,56.78
2022-07-27T06:40:12.726Z,56.64
2022-07-27T06:42:40.808Z,56.59
2022-07-27T06:45:09.691Z,56.40
2022-07-27T06:47:48.751Z,56.10
2022-07-27T06:50:18.640Z,56.25
2022-07-27T06:52:46.761Z,56.11
2022-07-27T06:55:13.344Z,56.12
2022-07-27T06:57:39.775Z,56.15
2022-07-27T07:00:06.996Z,56.06
2022-07-27T07:02:33.474Z,55.61
2022-07-27T07:04:59.885Z,55.80
2022-07-27T07:07:26.555Z,55.73
2022-07-27T07:09:53.077Z,55.32
2022-07-27T07:12:19.742Z,55.30
2022-07-27T07:14:46.261Z,55.52
2022-07-27T07:17:12.963Z,54.90
2022-07-27T07:19:39.391Z,54.44
2022-07-27T07:22:06.011Z,54.82
2022-07-27T07:24:33.087Z,54.78
2022-07-27T07:26:59.605Z,54.53
2022-07-27T07:29:26.039Z,54.22
2022-07-27T07:31:52.523Z,53.97
2022-07-27T07:34:18.942Z,53.59
2022-07-27T07:36:47.324Z,53.46
2022-07-27T07:39:14.268Z,53.52
2022-07-27T07:41:41.006Z,53.01
2022-07-27T07:44:08.537Z,52.91
2022-07-27T07:46:36.342Z,52.37
2022-07-27T07:49:04.478Z,52.58
2022-07-27T07:51:31.541Z,51.94
2022-07-27T07:53:58.111Z,51.84
2022-07-27T07:56:25.025Z,51.25
2022-07-27T07:58:51.486Z,51.66
2022-07-27T08:01:27.772Z,51.53
2022-07-27T08:03:57.832Z,51.39
2022-07-27T08:06:24.418Z,51.16
2022-07-27T08:08:51.039Z,50.78
2022-07-27T08:11:17.815Z,50.58
2022-07-27T08:13:44.251Z,50.47
2022-07-27T08:16:10.768Z,50.21
2022-07-27T08:18:37.298Z,49.67
2022-07-27T08:21:03.790Z,49.51
2022-07-27T08:23:33.114Z,49.47
2022-07-27T08:26:04.118Z,49.18
2022-07-27T08:28:36.958Z,49.80
2022-07-27T08:31:08.991Z,49.44
2022-07-27T08:33:42.950Z,49.34
2022-07-27T08:36:09.490Z,49.05
2022-07-27T08:38:36.818Z,49.44
2022-07-27T08:41:03.763Z,49.76
2022-07-27T08:43:31.393Z,50.38
2022-07-27T08:46:00.664Z,50.57
2022-07-27T08:48:32.704Z,50.48
2022-07-27T08:50:59.267Z,50.57
2022-07-27T08:53:53.652Z,50.45
2022-07-27T08:56:21.495Z,50.04
2022-07-27T08:58:48.545Z,49.89
2022-07-27T09:01:16.439Z,49.66
2022-07-27T09:03:42.956Z,49.12
2022-07-27T09:06:10.104Z,49.45
2022-07-27T09:08:38.047Z,49.44
2022-07-27T09:11:15.235Z,49.62
2022-07-27T09:13:42.071Z,49.48
2022-07-27T09:16:19.666Z,49.41
2022-07-27T09:18:47.938Z,49.43
2022-07-27T09:21:22.889Z,49.84
2022-07-27T09:24:44.331Z,49.58
2022-07-27T09:27:03.491Z,48.92
2022-07-27T09:29:35.101Z,49.08
2022-07-27T09:32:14.650Z,48.72
2022-07-27T09:34:41.133Z,48.98
2022-07-27T09:37:07.953Z,49.13
2022-07-27T09:39:34.387Z,48.76
2022-07-27T09:42:02.382Z,48.39
2022-07-27T09:44:43.420Z,48.06
2022-07-27T09:47:27.761Z,47.81
2022-07-27T09:50:14.509Z,47.56
2022-07-27T09:52:41.346Z,47.33
2022-07-27T09:55:08.583Z,47.28
2022-07-27T09:57:55.733Z,46.92
2022-07-27T10:00:24.391Z,46.79
2022-07-27T10:02:53.420Z,46.47
2022-07-27T10:05:22.095Z,46.15
2022-07-27T10:07:49.971Z,46.05
2022-07-27T10:10:16.794Z,46.19
2022-07-27T10:12:46.927Z,46.38
2022-07-27T10:15:14.838Z,46.12
2022-07-27T10:17:44.223Z,45.90
2022-07-27T10:20:13.156Z,45.90
2022-07-27T10:22:49.045Z,45.76
2022-07-27T10:25:15.661Z,45.34
2022-07-27T10:27:47.248Z,45.12
2022-07-27T10:30:24.270Z,45.02
2022-07-27T10:32:54.836Z,44.81
2022-07-27T10:35:32.301Z,44.14
2022-07-27T10:38:44.064Z,44.62
2022-07-27T10:41:22.024Z,44.37
2022-07-27T10:43:50.908Z,44.32
2022-07-27T10:46:22.142Z,44.15
2022-07-27T10:48:49.424Z,43.51
2022-07-27T10:51:33.206Z,43.85
2022-07-27T10:54:18.194Z,43.66
2022-07-27T10:56:47.021Z,43.60
2022-07-27T10:59:15.085Z,43.39
2022-07-27T11:01:58.023Z,43.23
2022-07-27T11:04:24.810Z,43.16
2022-07-27T11:07:23.574Z,42.98
2022-07-27T11:12:30.829Z,42.41
2022-07-27T11:14:58.717Z,41.86
2022-07-27T11:17:54.162Z,41.82
2022-07-27T11:20:23.138Z,42.20
2022-07-27T11:25:36.429Z,41.82
2022-07-27T11:28:06.914Z,41.67
2022-07-27T11:30:33.933Z,41.71
2022-07-27T11:33:04.279Z,42.25
2022-07-27T11:35:30.943Z,42.36
2022-07-27T11:38:03.299Z,42.23
2022-07-27T11:40:56.530Z,42.02
2022-07-27T11:43:45.462Z,41.68
2022-07-27T11:46:24.681Z,41.58
2022-07-27T11:49:08.726Z,41.69
2022-07-27T11:51:38.752Z,41.51
2022-07-27T11:54:11.280Z,41.58
2022-07-27T11:56:42.512Z,41.71
2022-07-27T11:59:28.724Z,41.50
2022-07-27T12:02:07.146Z,41.46
2022-07-27T12:04:36.249Z,41.56
2022-07-27T12:07:15.401Z,41.61
2022-07-27T12:09:51.290Z,41.58
2022-07-27T12:12:20.142Z,41.64
2022-07-27T12:14:53.738Z,41.70
2022-07-27T12:17:37.688Z,41.76
2022-07-27T12:20:07.141Z,41.54
2022-07-27T12:22:35.176Z,41.64
2022-07-27T12:25:21.514Z,41.34
2022-07-27T12:28:03.876Z,41.49
2022-07-27T12:30:57.109Z,41.41
2022-07-27T12:33:35.127Z,41.26
2022-07-27T12:36:04.458Z,41.87
2022-07-27T12:38:39.891Z,42.00
2022-07-27T12:41:07.387Z,41.84
2022-07-27T12:43:33.874Z,41.87
2022-07-27T12:46:13.036Z,41.88
2022-07-27T12:48:41.929Z,42.12
2022-07-27T12:51:10.472Z,41.96
2022-07-27T12:53:38.243Z,42.21
2022-07-27T12:56:09.722Z,41.86
2022-07-27T12:58:37.058Z,42.16
2022-07-27T13:01:04.228Z,42.07
2022-07-27T13:03:30.697Z,41.86
2022-07-27T13:05:57.193Z,41.92
2022-07-27T13:08:24.037Z,41.59
2022-07-27T13:10:53.516Z,41.58
2022-07-27T13:13:23.940Z,42.01
2022-07-27T13:15:50.898Z,42.07
2022-07-27T13:18:22.836Z,41.89
2022-07-27T13:20:50.993Z,41.83
2022-07-27T13:23:17.840Z,41.81
2022-07-27T13:25:44.308Z,41.41
2022-07-27T13:28:11.689Z,41.54
2022-07-27T13:30:38.166Z,41.65
2022-07-27T13:33:05.012Z,41.72
2022-07-27T13:35:31.616Z,42.09
2022-07-27T13:37:58.319Z,42.18
2022-07-27T13:40:24.826Z,41.93
2022-07-27T13:42:51.220Z,42.05
2022-07-27T13:45:17.739Z,41.96
2022-07-27T13:47:44.309Z,42.07
2022-07-27T13:50:20.081Z,42.39
2022-07-27T13:52:47.695Z,42.48
2022-07-27T13:55:15.884Z,42.28
2022-07-27T13:57:44.355Z,42.46
2022-07-27T14:00:12.146Z,42.32
2022-07-27T14:02:39.247Z,42.46
2022-07-27T14:05:08.061Z,42.59
2022-07-27T14:07:34.671Z,42.92
2022-07-27T14:10:20.101Z,42.91
2022-07-27T14:12:46.543Z,42.81
2022-07-27T14:15:13.083Z,42.91
2022-07-27T14:17:39.484Z,43.13
2022-07-27T14:20:06.690Z,43.03
2022-07-27T14:22:33.169Z,42.94
2022-07-27T14:24:59.657Z,43.01
2022-07-27T14:27:26.093Z,42.90
2022-07-27T14:30:01.479Z,42.85
2022-07-27T14:32:28.034Z,43.07
2022-07-27T14:34:54.457Z,43.17
2022-07-27T14:37:20.888Z,43.49
2022-07-27T14:39:47.337Z,43.61
2022-07-27T14:42:14.294Z,43.51
2022-07-27T14:44:41.297Z,43.55
2022-07-27T14:47:07.909Z,43.54
2022-07-27T14:49:34.435Z,43.76
2022-07-27T14:52:00.915Z,43.56
2022-07-27T14:54:27.323Z,43.73
2022-07-27T14:56:54.245Z,43.72
2022-07-27T14:59:21.088Z,43.72
2022-07-27T15:01:47.607Z,43.96
2022-07-27T15:04:14.076Z,43.99
2022-07-27T15:06:40.609Z,44.11
2022-07-27T15:09:07.103Z,44.07
2022-07-27T15:11:33.891Z,44.10
2022-07-27T15:14:00.342Z,44.17
2022-07-27T15:16:30.622Z,44.18
2022-07-27T15:18:57.260Z,44.47
2022-07-27T15:21:24.869Z,44.44
2022-07-27T15:23:51.497Z,44.49
2022-07-27T15:26:17.953Z,44.03
2022-07-27T15:28:44.430Z,44.11
2022-07-27T15:31:11.092Z,44.27
2022-07-27T15:33:37.581Z,44.06
2022-07-27T15:36:04.473Z,44.14
2022-07-27T15:38:31.035Z,44.09
2022-07-27T15:40:57.548Z,44.12
2022-07-27T15:43:24.028Z,44.29
2022-07-27T15:45:51.542Z,44.16
2022-07-27T15:48:19.987Z,43.95
2022-07-27T15:50:49.708Z,43.98
2022-07-27T15:53:18.344Z,44.02
2022-07-27T15:55:45.370Z,43.90
2022-07-27T15:58:17.193Z,43.99
2022-07-27T16:00:52.768Z,43.90
2022-07-27T16:03:24.641Z,43.85
2022-07-27T16:05:52.858Z,43.58
2022-07-27T16:08:20.086Z,43.60
2022-07-27T16:10:47.794Z,43.09
2022-07-27T16:13:16.826Z,43.36
2022-07-27T16:16:02.797Z,43.34
2022-07-27T16:18:34.041Z,43.06
2022-07-27T16:21:01.421Z,43.08
2022-07-27T16:23:28.174Z,42.98
2022-07-27T16:26:06.320Z,42.83
2022-07-27T16:28:39.571Z,43.02
2022-07-27T16:31:09.799Z,42.58
2022-07-27T16:33:37.509Z,42.63
2022-07-27T16:36:05.651Z,42.52
2022-07-27T16:38:32.739Z,42.26
2022-07-27T16:40:59.557Z,42.31
2022-07-27T16:43:37.507Z,42.04
2022-07-27T16:46:09.398Z,41.97
2022-07-27T16:48:42.814Z,41.99
2022-07-27T16:51:16.271Z,41.83
2022-07-27T16:53:45.741Z,41.80
2022-07-27T16:56:12.365Z,41.63
2022-07-27T16:58:39.121Z,41.53
2022-07-27T17:01:07.225Z,41.63
2022-07-27T17:03:34.200Z,41.77
2022-07-27T17:06:05.695Z,41.72
2022-07-27T17:08:35.633Z,41.76
2022-07-27T17:11:02.371Z,41.66
2022-07-27T17:13:33.645Z,41.44
2022-07-27T17:16:07.049Z,41.44
2022-07-27T17:18:39.927Z,41.40
2022-07-27T17:21:11.804Z,41.51
2022-07-27T17:23:40.007Z,41.55
2022-07-27T17:26:07.404Z,41.51
2022-07-27T17:28:36.210Z,41.66
2022-07-27T17:31:04.363Z,41.60
2022-07-27T17:33:31.907Z,41.41
2022-07-27T17:35:59.418Z,41.46
2022-07-27T17:38:31.291Z,41.43
2022-07-27T17:41:00.957Z,41.26
2022-07-27T17:43:27.558Z,41.33
2022-07-27T17:45:56.292Z,41.38
2022-07-27T17:48:22.820Z,41.19
2022-07-27T17:50:50.789Z,41.42
2022-07-27T17:53:18.177Z,41.33
2022-07-27T17:55:44.677Z,41.35
2022-07-27T17:58:11.107Z,41.48
2022-07-27T18:00:37.677Z,41.49
2022-07-27T18:03:04.972Z,41.55
2022-07-27T18:05:32.306Z,41.81
2022-07-27T18:07:58.844Z,41.81
2022-07-27T18:10:25.392Z,41.76
2022-07-27T18:12:51.769Z,41.88
2022-07-27T18:15:37.126Z,41.88
2022-07-27T18:18:04.443Z,41.96
2022-07-27T18:20:31.207Z,42.05
2022-07-27T18:22:58.217Z,42.32
2022-07-27T18:25:25.478Z,42.12
2022-07-27T18:27:51.991Z,42.33
2022-07-27T18:30:18.499Z,42.54
2022-07-27T18:32:45.078Z,42.51
2022-07-27T18:35:12.614Z,42.63
2022-07-27T18:37:40.806Z,42.70
2022-07-27T18:40:08.698Z,42.96
2022-07-27T18:42:36.760Z,43.08
2022-07-27T18:45:05.451Z,43.15
2022-07-27T18:47:32.259Z,43.33
2022-07-27T18:49:58.858Z,43.27
2022-07-27T18:52:25.500Z,43.36
2022-07-27T18:54:53.587Z,43.47
2022-07-27T18:57:20.094Z,43.62
2022-07-27T18:59:47.457Z,43.77
2022-07-27T19:02:15.598Z,43.75
2022-07-27T19:04:42.377Z,43.86
2022-07-27T19:07:09.968Z,43.95
2022-07-27T19:09:36.636Z,44.14
2022-07-27T19:12:09.371Z,44.25
2022-07-27T19:14:36.428Z,44.47
2022-07-27T19:17:02.935Z,44.47
2022-07-27T19:19:29.872Z,44.67
2022-07-27T19:21:56.988Z,44.97
2022-07-27T19:24:24.901Z,45.07
2022-07-27T19:26:51.378Z,45.18
2022-07-27T19:29:19.259Z,45.41
2022-07-27T19:31:46.285Z,45.52
2022-07-27T19:34:12.792Z,45.81
2022-07-27T19:36:39.620Z,46.03
2022-07-27T19:39:08.126Z,46.16
2022-07-27T19:41:35.659Z,46.52
2022-07-27T19:44:03.283Z,46.50
2022-07-27T19:46:30.014Z,46.77
2022-07-27T19:48:56.957Z,46.91
2022-07-27T19:51:24.409Z,47.03
2022-07-27T19:53:51.089Z,47.18
2022-07-27T19:56:17.638Z,47.29
2022-07-27T19:58:45.899Z,47.75
2022-07-27T20:01:13.546Z,47.83
2022-07-27T20:03:48.818Z,47.83
2022-07-27T20:06:25.468Z,48.20
2022-07-27T20:08:58.941Z,48.36
2022-07-27T20:11:29.460Z,48.55
2022-07-27T20:13:57.013Z,48.68
2022-07-27T20:16:23.832Z,48.87
2022-07-27T20:18:50.358Z,48.91
2022-07-27T20:21:22.732Z,49.08
2022-07-27T20:23:51.906Z,49.53
2022-07-27T20:26:19.173Z,49.94
2022-07-27T20:28:46.544Z,49.66
2022-07-27T20:31:13.227Z,49.66
2022-07-27T20:33:40.275Z,49.83
2022-07-27T20:36:06.949Z,49.98
2022-07-27T20:38:33.862Z,50.05
2022-07-27T20:41:00.266Z,49.97
2022-07-27T20:43:27.301Z,50.27
2022-07-27T20:45:54.289Z,50.35
2022-07-27T20:48:20.891Z,50.39
2022-07-27T20:50:47.560Z,50.65
2022-07-27T20:53:14.125Z,50.77
2022-07-27T20:55:42.443Z,50.90
2022-07-27T20:58:09.088Z,50.89
2022-07-27T21:00:36.780Z,50.80
2022-07-27T21:03:04.790Z,50.84
2022-07-27T21:05:31.186Z,51.03
2022-07-27T21:07:57.745Z,50.97
2022-07-27T21:10:24.680Z,51.14
2022-07-27T21:12:52.516Z,51.09
2022-07-27T21:15:19.419Z,51.22
2022-07-27T21:17:45.882Z,51.24
2022-07-27T21:20:14.350Z,51.48
2022-07-27T21:22:42.532Z,51.50
2022-07-27T21:25:10.141Z,51.52
2022-07-27T21:27:36.767Z,51.60
2022-07-27T21:30:05.770Z,51.61
2022-07-27T21:32:33.733Z,51.61
2022-07-27T21:35:00.551Z,51.78
2022-07-27T21:37:33.494Z,51.65
2022-07-27T21:39:59.919Z,51.80
2022-07-27T21:42:27.320Z,51.93
2022-07-27T21:44:55.468Z,51.86
2022-07-27T21:47:23.189Z,51.87
2022-07-27T21:49:49.830Z,51.99
2022-07-27T21:52:16.230Z,51.95
2022-07-27T21:54:42.750Z,52.10
2022-07-27T21:57:09.178Z,52.15
2022-07-27T21:59:36.244Z,52.24
2022-07-27T22:02:03.607Z,52.39
2022-07-27T22:04:30.074Z,52.69
2022-07-27T22:06:56.593Z,52.60
2022-07-27T22:09:23.112Z,52.98
2022-07-27T22:11:50.150Z,52.95
2022-07-27T22:14:17.070Z,53.12
2022-07-27T22:16:43.882Z,53.13
2022-07-27T22:19:10.467Z,53.30
2022-07-27T22:21:36.940Z,53.46
2022-07-27T22:24:04.835Z,53.28
2022-07-27T22:26:31.429Z,53.26
2022-07-27T22:28:58.455Z,53.14
2022-07-27T22:31:24.929Z,53.23
2022-07-27T22:33:51.724Z,53.37
2022-07-27T22:36:18.496Z,53.55
2022-07-27T22:38:44.912Z,53.26
2022-07-27T22:41:11.525Z,53.51
2022-07-27T22:43:40.755Z,53.77
2022-07-27T22:46:09.391Z,53.88
2022-07-27T22:48:37.248Z,53.72
2022-07-27T22:51:04.271Z,54.06
2022-07-27T22:53:30.670Z,54.02
2022-07-27T22:55:57.087Z,54.14
2022-07-27T22:58:23.536Z,54.42
2022-07-27T23:00:50.111Z,54.33
2022-07-27T23:03:16.733Z,54.46
2022-07-27T23:05:43.180Z,54.40
2022-07-27T23:08:09.678Z,54.66
2022-07-27T23:10:45.082Z,54.72
2022-07-27T23:13:16.219Z,54.99
2022-07-27T23:15:44.676Z,54.71
2022-07-27T23:18:12.800Z,54.74
2022-07-27T23:20:40.126Z,54.67
2022-07-27T23:23:15.741Z,54.78
2022-07-27T23:25:48.773Z,54.96
2022-07-27T23:28:16.102Z,55.19
2022-07-27T23:30:50.818Z,55.32
2022-07-27T23:33:17.851Z,55.31
2022-07-27T23:35:44.370Z,55.38
2022-07-27T23:38:10.809Z,55.41
2022-07-27T23:40:37.266Z,55.60
2022-07-27T23:43:03.785Z,55.67
2022-07-27T23:45:30.433Z,55.67
2022-07-27T23:47:56.847Z,55.76
2022-07-27T23:50:23.501Z,55.88
2022-07-27T23:52:50.043Z,55.93
2022-07-27T23:55:17.454Z,56.04
2022-07-27T23:57:44.320Z,56.00
